sensor_id;sensor_type;location;lat;lon;timestamp;pressure;altitude;pressure_sealevel;temperature;humidity
43770;BME280;6597;52.218;9.882;2023-11-22T00:00:12;101863.00;;;1.49;100.00
43770;BME280;6597;52.218;9.882;2023-11-22T00:02:39;101864.72;;;1.49;100.00
43770;BME280;6597;52.218;9.882;2023-11-22T00:05:06;101863.84;;;1.48;100.00
43770;BME280;6597;52.218;9.882;2023-11-22T00:07:35;101860.31;;;1.43;100.00
43770;BME280;6597;52.218;9.882;2023-11-22T00:10:02;101861.13;;;1.41;100.00
43770;BME280;6597;52.218;9.882;2023-11-22T00:12:30;101873.19;;;1.40;100.00
43770;BME280;6597;52.218;9.882;2023-11-22T00:15:02;101880.03;;;1.38;100.00
43770;BME280;6597;52.218;9.882;2023-11-22T00:17:29;101870.56;;;1.39;100.00
43770;BME280;6597;52.218;9.882;2023-11-22T00:19:55;101881.72;;;1.36;100.00
43770;BME280;6597;52.218;9.882;2023-11-22T00:22:22;101891.16;;;1.33;100.00
43770;BME280;6597;52.218;9.882;2023-11-22T00:24:49;101894.66;;;1.36;100.00
43770;BME280;6597;52.218;9.882;2023-11-22T00:27:16;101897.25;;;1.36;100.00
43770;BME280;6597;52.218;9.882;2023-11-22T00:29:44;101895.50;;;1.35;100.00
43770;BME280;6597;52.218;9.882;2023-11-22T00:32:11;101890.28;;;1.32;100.00
43770;BME280;6597;52.218;9.882;2023-11-22T00:34:38;101878.22;;;1.33;100.00
43770;BME280;6597;52.218;9.882;2023-11-22T00:37:05;101889.47;;;1.35;100.00
43770;BME280;6597;52.218;9.882;2023-11-22T00:42:03;101892.97;;;1.37;100.00
43770;BME280;6597;52.218;9.882;2023-11-22T00:44:30;101892.91;;;1.34;100.00
43770;BME280;6597;52.218;9.882;2023-11-22T00:46:56;101890.25;;;1.31;100.00
43770;BME280;6597;52.218;9.882;2023-11-22T00:49:23;101887.53;;;1.26;100.00
43770;BME280;6597;52.218;9.882;2023-11-22T00:51:50;101893.41;;;1.17;100.00
43770;BME280;6597;52.218;9.882;2023-11-22T00:54:17;101905.34;;;1.12;100.00
43770;BME280;6597;52.218;9.882;2023-11-22T00:56:45;101892.41;;;1.11;100.00
43770;BME280;6597;52.218;9.882;2023-11-22T00:59:13;101899.25;;;1.09;100.00
43770;BME280;6597;52.218;9.882;2023-11-22T01:01:40;101909.56;;;1.07;100.00
43770;BME280;6597;52.218;9.882;2023-11-22T01:04:07;101906.03;;;1.04;100.00
43770;BME280;6597;52.218;9.882;2023-11-22T01:06:33;101907.78;;;1.05;100.00
43770;BME280;6597;52.218;9.882;2023-11-22T01:09:02;101918.94;;;1.02;100.00
43770;BME280;6597;52.218;9.882;2023-11-22T01:11:29;101925.63;;;0.94;100.00
43770;BME280;6597;52.218;9.882;2023-11-22T01:13:55;101923.78;;;0.88;100.00
43770;BME280;6597;52.218;9.882;2023-11-22T01:16:24;101928.03;;;0.86;100.00
43770;BME280;6597;52.218;9.882;2023-11-22T01:18:50;101940.09;;;0.86;100.00
43770;BME280;6597;52.218;9.882;2023-11-22T01:21:18;101932.28;;;0.84;100.00
43770;BME280;6597;52.218;9.882;2023-11-22T01:23:44;101938.31;;;0.83;100.00
43770;BME280;6597;52.218;9.882;2023-11-22T01:26:12;101945.94;;;0.79;100.00
43770;BME280;6597;52.218;9.882;2023-11-22T01:28:38;101947.59;;;0.75;100.00
43770;BME280;6597;52.218;9.882;2023-11-22T01:31:11;101943.31;;;0.76;100.00
43770;BME280;6597;52.218;9.882;2023-11-22T01:33:38;101946.72;;;0.75;100.00
43770;BME280;6597;52.218;9.882;2023-11-22T01:36:06;101948.41;;;0.73;100.00
43770;BME280;6597;52.218;9.882;2023-11-22T01:38:33;101962.97;;;0.69;100.00
43770;BME280;6597;52.218;9.882;2023-11-22T01:40:59;101967.19;;;0.66;100.00
43770;BME280;6597;52.218;9.882;2023-11-22T01:43:27;101963.72;;;0.65;100.00
43770;BME280;6597;52.218;9.882;2023-11-22T01:45:54;101962.91;;;0.68;100.00
43770;BME280;6597;52.218;9.882;2023-11-22T01:48:21;101957.06;;;0.75;100.00
43770;BME280;6597;52.218;9.882;2023-11-22T01:50:50;101945.03;;;0.77;100.00
43770;BME280;6597;52.218;9.882;2023-11-22T01:53:18;101953.75;;;0.80;100.00
43770;BME280;6597;52.218;9.882;2023-11-22T01:55:47;101951.16;;;0.80;100.00
43770;BME280;6597;52.218;9.882;2023-11-22T01:58:14;101940.81;;;0.80;100.00
43770;BME280;6597;52.218;9.882;2023-11-22T02:00:44;101948.50;;;0.77;100.00
43770;BME280;6597;52.218;9.882;2023-11-22T02:03:11;101945.84;;;0.74;100.00
43770;BME280;6597;52.218;9.882;2023-11-22T02:05:40;101949.28;;;0.73;100.00
43770;BME280;6597;52.218;9.882;2023-11-22T02:08:09;101960.53;;;0.75;100.00
43770;BME280;6597;52.218;9.882;2023-11-22T02:10:36;101967.28;;;0.70;100.00
43770;BME280;6597;52.218;9.882;2023-11-22T02:13:03;101956.09;;;0.70;100.00
43770;BME280;6597;52.218;9.882;2023-11-22T02:15:32;101957.00;;;0.72;100.00
43770;BME280;6597;52.218;9.882;2023-11-22T02:17:59;101960.19;;;0.63;100.00
43770;BME280;6597;52.218;9.882;2023-11-22T02:20:26;101973.03;;;0.60;100.00
43770;BME280;6597;52.218;9.882;2023-11-22T02:22:52;101963.50;;;0.57;100.00
43770;BME280;6597;52.218;9.882;2023-11-22T02:25:20;101966.06;;;0.56;100.00
43770;BME280;6597;52.218;9.882;2023-11-22T02:27:47;101966.97;;;0.58;100.00
43770;BME280;6597;52.218;9.882;2023-11-22T02:30:13;101958.31;;;0.56;100.00
43770;BME280;6597;52.218;9.882;2023-11-22T02:32:40;101957.50;;;0.58;100.00
43770;BME280;6597;52.218;9.882;2023-11-22T02:35:07;101959.13;;;0.55;100.00
43770;BME280;6597;52.218;9.882;2023-11-22T02:37:34;101961.66;;;0.52;100.00
43770;BME280;6597;52.218;9.882;2023-11-22T02:40:05;101958.22;;;0.53;100.00
43770;BME280;6597;52.218;9.882;2023-11-22T02:42:34;101960.81;;;0.53;100.00
43770;BME280;6597;52.218;9.882;2023-11-22T02:45:00;101962.53;;;0.52;100.00
43770;BME280;6597;52.218;9.882;2023-11-22T02:47:27;101959.84;;;0.48;100.00
43770;BME280;6597;52.218;9.882;2023-11-22T02:49:55;101965.75;;;0.44;100.00
43770;BME280;6597;52.218;9.882;2023-11-22T02:52:22;101971.72;;;0.41;100.00
43770;BME280;6597;52.218;9.882;2023-11-22T02:54:49;101969.09;;;0.40;100.00
43770;BME280;6597;52.218;9.882;2023-11-22T02:57:16;101974.19;;;0.37;100.00
43770;BME280;6597;52.218;9.882;2023-11-22T02:59:44;101976.78;;;0.37;100.00
43770;BME280;6597;52.218;9.882;2023-11-22T03:02:11;101978.41;;;0.33;100.00
43770;BME280;6597;52.218;9.882;2023-11-22T03:04:38;101990.44;;;0.33;100.00
43770;BME280;6597;52.218;9.882;2023-11-22T03:07:04;102000.63;;;0.28;100.00
43770;BME280;6597;52.218;9.882;2023-11-22T03:09:31;101996.28;;;0.27;100.00
43770;BME280;6597;52.218;9.882;2023-11-22T03:11:58;102002.28;;;0.26;100.00
43770;BME280;6597;52.218;9.882;2023-11-22T03:14:25;102001.34;;;0.22;100.00
43770;BME280;6597;52.218;9.882;2023-11-22T03:16:53;102013.38;;;0.22;100.00
43770;BME280;6597;52.218;9.882;2023-11-22T03:19:19;102018.59;;;0.23;100.00
43770;BME280;6597;52.218;9.882;2023-11-22T03:21:46;102026.34;;;0.23;100.00
43770;BME280;6597;52.218;9.882;2023-11-22T03:24:12;102030.69;;;0.26;100.00
43770;BME280;6597;52.218;9.882;2023-11-22T03:26:41;102036.00;;;0.30;100.00
43770;BME280;6597;52.218;9.882;2023-11-22T03:29:08;102035.31;;;0.36;100.00
43770;BME280;6597;52.218;9.882;2023-11-22T03:31:34;102039.63;;;0.37;100.00
43770;BME280;6597;52.218;9.882;2023-11-22T03:34:04;102037.19;;;0.42;100.00
43770;BME280;6597;52.218;9.882;2023-11-22T03:36:31;102033.75;;;0.43;100.00
43770;BME280;6597;52.218;9.882;2023-11-22T03:38:58;102037.09;;;0.39;100.00
43770;BME280;6597;52.218;9.882;2023-11-22T03:41:24;102035.34;;;0.38;100.00
43770;BME280;6597;52.218;9.882;2023-11-22T03:43:52;102042.03;;;0.31;100.00
43770;BME280;6597;52.218;9.882;2023-11-22T03:46:19;102045.31;;;0.25;100.00
43770;BME280;6597;52.218;9.882;2023-11-22T03:48:45;102053.88;;;0.23;100.00
43770;BME280;6597;52.218;9.882;2023-11-22T03:51:13;102046.91;;;0.20;100.00
43770;BME280;6597;52.218;9.882;2023-11-22T03:53:41;102051.88;;;0.13;100.00
43770;BME280;6597;52.218;9.882;2023-11-22T03:56:07;102057.81;;;0.10;100.00
43770;BME280;6597;52.218;9.882;2023-11-22T03:58:34;102053.50;;;0.09;100.00
43770;BME280;6597;52.218;9.882;2023-11-22T04:01:01;102068.91;;;0.06;100.00
43770;BME280;6597;52.218;9.882;2023-11-22T04:03:28;102068.81;;;0.03;100.00
43770;BME280;6597;52.218;9.882;2023-11-22T04:05:55;102068.59;;;-0.03;100.00
43770;BME280;6597;52.218;9.882;2023-11-22T04:08:23;102074.34;;;-0.13;100.00
43770;BME280;6597;52.218;9.882;2023-11-22T04:10:50;102076.75;;;-0.19;100.00
43770;BME280;6597;52.218;9.882;2023-11-22T04:13:17;102074.00;;;-0.25;100.00
43770;BME280;6597;52.218;9.882;2023-11-22T04:15:43;102076.38;;;-0.32;100.00
43770;BME280;6597;52.218;9.882;2023-11-22T04:18:10;102085.63;;;-0.38;100.00
43770;BME280;6597;52.218;9.882;2023-11-22T04:20:36;102094.88;;;-0.45;100.00
43770;BME280;6597;52.218;9.882;2023-11-22T04:23:03;102091.09;;;-0.56;100.00
43770;BME280;6597;52.218;9.882;2023-11-22T04:25:31;102092.56;;;-0.64;100.00
43770;BME280;6597;52.218;9.882;2023-11-22T04:27:59;102101.94;;;-0.66;100.00
43770;BME280;6597;52.218;9.882;2023-11-22T04:30:26;102096.84;;;-0.65;100.00
43770;BME280;6597;52.218;9.882;2023-11-22T04:32:52;102102.09;;;-0.61;100.00
43770;BME280;6597;52.218;9.882;2023-11-22T04:35:19;102097.00;;;-0.60;100.00
43770;BME280;6597;52.218;9.882;2023-11-22T04:37:45;102103.94;;;-0.57;100.00
43770;BME280;6597;52.218;9.882;2023-11-22T04:40:13;102103.06;;;-0.58;100.00
43770;BME280;6597;52.218;9.882;2023-11-22T04:42:41;102100.63;;;-0.53;100.00
43770;BME280;6597;52.218;9.882;2023-11-22T04:45:08;102112.00;;;-0.47;100.00
43770;BME280;6597;52.218;9.882;2023-11-22T04:47:35;102107.78;;;-0.45;100.00
43770;BME280;6597;52.218;9.882;2023-11-22T04:50:02;102112.06;;;-0.45;100.00
43770;BME280;6597;52.218;9.882;2023-11-22T04:52:28;102112.16;;;-0.42;100.00
43770;BME280;6597;52.218;9.882;2023-11-22T04:54:55;102108.69;;;-0.43;100.00
43770;BME280;6597;52.218;9.882;2023-11-22T04:57:21;102112.94;;;-0.45;100.00
43770;BME280;6597;52.218;9.882;2023-11-22T04:59:49;102094.56;;;-0.55;100.00
43770;BME280;6597;52.218;9.882;2023-11-22T05:02:16;102113.03;;;-0.42;100.00
43770;BME280;6597;52.218;9.882;2023-11-22T05:04:42;102114.78;;;-0.41;100.00
43770;BME280;6597;52.218;9.882;2023-11-22T05:07:13;102119.91;;;-0.42;100.00
43770;BME280;6597;52.218;9.882;2023-11-22T05:09:39;102122.66;;;-0.36;100.00
43770;BME280;6597;52.218;9.882;2023-11-22T05:12:06;102115.91;;;-0.33;100.00
43770;BME280;6597;52.218;9.882;2023-11-22T05:14:33;102115.97;;;-0.31;100.00
43770;BME280;6597;52.218;9.882;2023-11-22T05:17:00;102107.41;;;-0.30;100.00
43770;BME280;6597;52.218;9.882;2023-11-22T05:19:27;102104.84;;;-0.28;100.00
43770;BME280;6597;52.218;9.882;2023-11-22T05:21:54;102109.19;;;-0.27;100.00
43770;BME280;6597;52.218;9.882;2023-11-22T05:24:20;102114.13;;;-0.34;100.00
43770;BME280;6597;52.218;9.882;2023-11-22T05:26:47;102115.59;;;-0.42;100.00
43770;BME280;6597;52.218;9.882;2023-11-22T05:29:13;102113.72;;;-0.47;100.00
43770;BME280;6597;52.218;9.882;2023-11-22T05:31:40;102118.63;;;-0.55;100.00
43770;BME280;6597;52.218;9.882;2023-11-22T05:34:08;102110.81;;;-0.58;100.00
43770;BME280;6597;52.218;9.882;2023-11-22T05:36:34;102118.22;;;-0.67;100.00
43770;BME280;6597;52.218;9.882;2023-11-22T05:39:01;102116.28;;;-0.74;100.00
43770;BME280;6597;52.218;9.882;2023-11-22T05:41:29;102122.22;;;-0.77;100.00
43770;BME280;6597;52.218;9.882;2023-11-22T05:43:56;102111.84;;;-0.78;100.00
43770;BME280;6597;52.218;9.882;2023-11-22T05:46:24;102114.63;;;-0.72;100.00
43770;BME280;6597;52.218;9.882;2023-11-22T05:48:50;102110.38;;;-0.70;100.00
43770;BME280;6597;52.218;9.882;2023-11-22T05:51:18;102110.28;;;-0.73;100.00
43770;BME280;6597;52.218;9.882;2023-11-22T05:53:45;102118.91;;;-0.73;100.00
43770;BME280;6597;52.218;9.882;2023-11-22T05:56:12;102111.16;;;-0.73;100.00
43770;BME280;6597;52.218;9.882;2023-11-22T05:58:40;102129.22;;;-0.73;100.00
43770;BME280;6597;52.218;9.882;2023-11-22T06:01:06;102130.91;;;-0.73;100.00
43770;BME280;6597;52.218;9.882;2023-11-22T06:03:35;102139.47;;;-0.74;100.00
43770;BME280;6597;52.218;9.882;2023-11-22T06:06:02;102153.41;;;-0.69;100.00
43770;BME280;6597;52.218;9.882;2023-11-22T06:08:30;102171.41;;;-0.71;100.00
43770;BME280;6597;52.218;9.882;2023-11-22T06:10:57;102176.34;;;-0.77;100.00
43770;BME280;6597;52.218;9.882;2023-11-22T06:13:24;102170.84;;;-0.87;100.00
43770;BME280;6597;52.218;9.882;2023-11-22T06:15:51;102181.06;;;-0.90;100.00
43770;BME280;6597;52.218;9.882;2023-11-22T06:18:17;102185.13;;;-0.97;100.00
43770;BME280;6597;52.218;9.882;2023-11-22T06:20:44;102189.94;;;-1.06;100.00
43770;BME280;6597;52.218;9.882;2023-11-22T06:23:12;102187.94;;;-1.15;100.00
43770;BME280;6597;52.218;9.882;2023-11-22T06:25:40;102195.28;;;-1.26;100.00
43770;BME280;6597;52.218;9.882;2023-11-22T06:28:07;102193.41;;;-1.30;100.00
43770;BME280;6597;52.218;9.882;2023-11-22T06:30:33;102196.47;;;-1.40;100.00
43770;BME280;6597;52.218;9.882;2023-11-22T06:33:00;102203.16;;;-1.45;100.00
43770;BME280;6597;52.218;9.882;2023-11-22T06:35:27;102200.41;;;-1.49;100.00
43770;BME280;6597;52.218;9.882;2023-11-22T06:37:53;102202.06;;;-1.51;100.00
43770;BME280;6597;52.218;9.882;2023-11-22T06:40:20;102202.00;;;-1.53;100.00
43770;BME280;6597;52.218;9.882;2023-11-22T06:42:48;102210.47;;;-1.55;100.00
43770;BME280;6597;52.218;9.882;2023-11-22T06:45:14;102205.28;;;-1.57;100.00
43770;BME280;6597;52.218;9.882;2023-11-22T06:47:42;102199.13;;;-1.61;100.00
43770;BME280;6597;52.218;9.882;2023-11-22T06:50:09;102200.03;;;-1.60;100.00
43770;BME280;6597;52.218;9.882;2023-11-22T06:52:37;102187.81;;;-1.64;100.00
43770;BME280;6597;52.218;9.882;2023-11-22T06:55:04;102188.59;;;-1.67;100.00
43770;BME280;6597;52.218;9.882;2023-11-22T06:57:33;102175.78;;;-1.65;100.00
43770;BME280;6597;52.218;9.882;2023-11-22T07:00:01;102178.41;;;-1.64;100.00
43770;BME280;6597;52.218;9.882;2023-11-22T07:02:30;102178.41;;;-1.64;100.00
43770;BME280;6597;52.218;9.882;2023-11-22T07:04:56;102170.69;;;-1.64;100.00
43770;BME280;6597;52.218;9.882;2023-11-22T07:07:24;102178.50;;;-1.62;100.00
43770;BME280;6597;52.218;9.882;2023-11-22T07:09:51;102184.69;;;-1.57;100.00
43770;BME280;6597;52.218;9.882;2023-11-22T07:12:17;102182.06;;;-1.59;100.00
43770;BME280;6597;52.218;9.882;2023-11-22T07:14:44;102183.91;;;-1.54;100.00
43770;BME280;6597;52.218;9.882;2023-11-22T07:17:12;102183.19;;;-1.50;100.00
43770;BME280;6597;52.218;9.882;2023-11-22T07:19:39;102188.56;;;-1.44;100.00
43770;BME280;6597;52.218;9.882;2023-11-22T07:22:12;102186.16;;;-1.40;100.00
43770;BME280;6597;52.218;9.882;2023-11-22T07:24:42;102168.44;;;-1.31;100.00
43770;BME280;6597;52.218;9.882;2023-11-22T07:27:09;102169.69;;;-1.21;100.00
43770;BME280;6597;52.218;9.882;2023-11-22T07:29:37;102166.59;;;-1.11;100.00
43770;BME280;6597;52.218;9.882;2023-11-22T07:32:04;102174.69;;;-1.00;100.00
43770;BME280;6597;52.218;9.882;2023-11-22T07:34:32;102164.66;;;-0.92;100.00
43770;BME280;6597;52.218;9.882;2023-11-22T07:36:59;102153.88;;;-0.81;100.00
43770;BME280;6597;52.218;9.882;2023-11-22T07:39:26;102149.16;;;-0.67;100.00
43770;BME280;6597;52.218;9.882;2023-11-22T07:41:53;102149.63;;;-0.53;100.00
43770;BME280;6597;52.218;9.882;2023-11-22T07:44:20;102149.25;;;-0.39;100.00
43770;BME280;6597;52.218;9.882;2023-11-22T07:46:47;102139.38;;;-0.25;100.00
43770;BME280;6597;52.218;9.882;2023-11-22T07:49:14;102150.06;;;-0.13;100.00
43770;BME280;6597;52.218;9.882;2023-11-22T07:51:43;102162.53;;;0.01;100.00
43770;BME280;6597;52.218;9.882;2023-11-22T07:54:10;102151.69;;;0.12;100.00
43770;BME280;6597;52.218;9.882;2023-11-22T07:56:40;102161.50;;;0.24;100.00
43770;BME280;6597;52.218;9.882;2023-11-22T07:59:08;102178.28;;;0.38;100.00
43770;BME280;6597;52.218;9.882;2023-11-22T08:01:36;102184.72;;;0.52;100.00
43770;BME280;6597;52.218;9.882;2023-11-22T08:04:03;102192.16;;;0.72;100.00
43770;BME280;6597;52.218;9.882;2023-11-22T08:06:30;102176.28;;;0.89;100.00
43770;BME280;6597;52.218;9.882;2023-11-22T08:08:58;102181.06;;;1.07;100.00
43770;BME280;6597;52.218;9.882;2023-11-22T08:11:27;102192.47;;;1.14;100.00
43770;BME280;6597;52.218;9.882;2023-11-22T08:13:53;102186.56;;;1.19;100.00
43770;BME280;6597;52.218;9.882;2023-11-22T08:16:20;102196.19;;;1.25;100.00
43770;BME280;6597;52.218;9.882;2023-11-22T08:18:46;102200.53;;;1.26;100.00
43770;BME280;6597;52.218;9.882;2023-11-22T08:21:13;102196.31;;;1.30;100.00
43770;BME280;6597;52.218;9.882;2023-11-22T08:23:40;102195.97;;;1.16;100.00
43770;BME280;6597;52.218;9.882;2023-11-22T08:26:07;102201.94;;;1.13;100.00
43770;BME280;6597;52.218;9.882;2023-11-22T08:28:34;102215.81;;;1.17;100.00
43770;BME280;6597;52.218;9.882;2023-11-22T08:31:01;102224.00;;;1.32;100.00
43770;BME280;6597;52.218;9.882;2023-11-22T08:33:29;102229.63;;;1.50;100.00
43770;BME280;6597;52.218;9.882;2023-11-22T08:35:56;102238.72;;;1.68;100.00
43770;BME280;6597;52.218;9.882;2023-11-22T08:38:24;102248.56;;;1.82;100.00
43770;BME280;6597;52.218;9.882;2023-11-22T08:40:51;102261.75;;;1.93;100.00
43770;BME280;6597;52.218;9.882;2023-11-22T08:43:21;102256.66;;;1.96;100.00
43770;BME280;6597;52.218;9.882;2023-11-22T08:45:51;102268.41;;;2.18;100.00
43770;BME280;6597;52.218;9.882;2023-11-22T08:48:17;102277.53;;;2.38;100.00
43770;BME280;6597;52.218;9.882;2023-11-22T08:50:44;102267.44;;;2.52;99.30
43770;BME280;6597;52.218;9.882;2023-11-22T08:53:12;102255.69;;;2.66;98.36
43770;BME280;6597;52.218;9.882;2023-11-22T08:55:39;102253.34;;;2.80;95.56
43770;BME280;6597;52.218;9.882;2023-11-22T08:58:05;102245.56;;;2.80;92.67
43770;BME280;6597;52.218;9.882;2023-11-22T09:00:34;102243.41;;;3.00;93.12
43770;BME280;6597;52.218;9.882;2023-11-22T09:03:01;102245.22;;;3.05;91.43
43770;BME280;6597;52.218;9.882;2023-11-22T09:05:28;102248.03;;;3.16;90.43
43770;BME280;6597;52.218;9.882;2023-11-22T09:07:55;102232.69;;;3.27;90.51
43770;BME280;6597;52.218;9.882;2023-11-22T09:10:23;102233.59;;;3.30;88.81
43770;BME280;6597;52.218;9.882;2023-11-22T09:12:49;102227.72;;;3.40;88.78
43770;BME280;6597;52.218;9.882;2023-11-22T09:15:17;102238.97;;;3.41;86.87
43770;BME280;6597;52.218;9.882;2023-11-22T09:17:50;102253.69;;;3.40;86.23
43770;BME280;6597;52.218;9.882;2023-11-22T09:20:19;102258.84;;;3.39;86.09
43770;BME280;6597;52.218;9.882;2023-11-22T09:22:48;102262.44;;;3.47;85.74
43770;BME280;6597;52.218;9.882;2023-11-22T09:25:15;102264.16;;;3.47;83.51
43770;BME280;6597;52.218;9.882;2023-11-22T09:27:44;102254.69;;;3.49;83.67
43770;BME280;6597;52.218;9.882;2023-11-22T09:30:12;102254.97;;;3.64;83.76
43770;BME280;6597;52.218;9.882;2023-11-22T09:32:44;102257.78;;;3.78;82.81
43770;BME280;6597;52.218;9.882;2023-11-22T09:35:14;102254.22;;;3.71;80.44
43770;BME280;6597;52.218;9.882;2023-11-22T09:37:40;102251.94;;;3.39;80.73
43770;BME280;6597;52.218;9.882;2023-11-22T09:40:08;102249.41;;;3.44;81.86
43770;BME280;6597;52.218;9.882;2023-11-22T09:42:36;102239.19;;;3.53;81.46
43770;BME280;6597;52.218;9.882;2023-11-22T09:45:03;102236.00;;;3.68;82.74
43770;BME280;6597;52.218;9.882;2023-11-22T09:47:32;102232.66;;;3.77;80.81
43770;BME280;6597;52.218;9.882;2023-11-22T09:50:01;102212.63;;;3.68;78.43
43770;BME280;6597;52.218;9.882;2023-11-22T09:52:33;102207.06;;;3.47;78.01
43770;BME280;6597;52.218;9.882;2023-11-22T09:55:00;102195.97;;;3.57;79.53
43770;BME280;6597;52.218;9.882;2023-11-22T09:57:29;102203.84;;;3.60;77.79
43770;BME280;6597;52.218;9.882;2023-11-22T09:59:57;102203.56;;;3.44;77.74
43770;BME280;6597;52.218;9.882;2023-11-22T10:02:24;102208.78;;;3.46;79.03
43770;BME280;6597;52.218;9.882;2023-11-22T10:04:52;102223.31;;;3.35;80.27
43770;BME280;6597;52.218;9.882;2023-11-22T10:07:18;102218.84;;;3.28;80.50
43770;BME280;6597;52.218;9.882;2023-11-22T10:09:46;102224.94;;;3.30;81.48
43770;BME280;6597;52.218;9.882;2023-11-22T10:12:13;102232.66;;;3.25;79.17
43770;BME280;6597;52.218;9.882;2023-11-22T10:14:40;102237.66;;;3.18;79.53
43770;BME280;6597;52.218;9.882;2023-11-22T10:17:06;102232.78;;;3.33;80.23
43770;BME280;6597;52.218;9.882;2023-11-22T10:19:33;102239.97;;;3.49;80.66
43770;BME280;6597;52.218;9.882;2023-11-22T10:22:04;102250.56;;;3.58;77.27
43770;BME280;6597;52.218;9.882;2023-11-22T10:24:31;102247.22;;;3.67;77.61
43770;BME280;6597;52.218;9.882;2023-11-22T10:27:00;102250.91;;;3.81;76.56
43770;BME280;6597;52.218;9.882;2023-11-22T10:29:26;102250.53;;;4.11;76.79
43770;BME280;6597;52.218;9.882;2023-11-22T10:31:53;102257.06;;;4.42;74.55
43770;BME280;6597;52.218;9.882;2023-11-22T10:34:20;102253.84;;;4.60;73.67
43770;BME280;6597;52.218;9.882;2023-11-22T10:36:47;102256.72;;;4.81;71.85
43770;BME280;6597;52.218;9.882;2023-11-22T10:39:18;102271.53;;;4.87;70.29
43770;BME280;6597;52.218;9.882;2023-11-22T10:41:45;102273.00;;;4.66;68.83
43770;BME280;6597;52.218;9.882;2023-11-22T10:44:13;102275.56;;;4.63;69.31
43770;BME280;6597;52.218;9.882;2023-11-22T10:46:42;102272.81;;;4.53;69.41
43770;BME280;6597;52.218;9.882;2023-11-22T10:49:09;102265.22;;;4.68;70.55
43770;BME280;6597;52.218;9.882;2023-11-22T10:51:39;102254.06;;;4.77;70.17
43770;BME280;6597;52.218;9.882;2023-11-22T10:54:06;102249.78;;;4.82;67.82
43770;BME280;6597;52.218;9.882;2023-11-22T10:56:37;102224.56;;;4.76;65.84
43770;BME280;6597;52.218;9.882;2023-11-22T10:59:09;102249.69;;;4.73;66.48
43770;BME280;6597;52.218;9.882;2023-11-22T11:01:42;102254.03;;;4.75;66.57
43770;BME280;6597;52.218;9.882;2023-11-22T11:04:16;102255.59;;;4.59;61.58
43770;BME280;6597;52.218;9.882;2023-11-22T11:06:46;102247.31;;;4.26;61.77
43770;BME280;6597;52.218;9.882;2023-11-22T11:09:17;102236.66;;;4.11;66.23
43770;BME280;6597;52.218;9.882;2023-11-22T11:11:47;102238.78;;;3.80;69.05
43770;BME280;6597;52.218;9.882;2023-11-22T11:14:14;102218.81;;;3.76;71.02
43770;BME280;6597;52.218;9.882;2023-11-22T11:16:45;102221.41;;;3.76;70.84
43770;BME280;6597;52.218;9.882;2023-11-22T11:19:15;102196.09;;;3.63;70.85
43770;BME280;6597;52.218;9.882;2023-11-22T11:21:43;102204.13;;;3.78;70.22
43770;BME280;6597;52.218;9.882;2023-11-22T11:24:10;102197.94;;;3.70;67.53
43770;BME280;6597;52.218;9.882;2023-11-22T11:26:37;102202.31;;;3.72;66.88
43770;BME280;6597;52.218;9.882;2023-11-22T11:29:03;102205.84;;;3.78;64.00
43770;BME280;6597;52.218;9.882;2023-11-22T11:31:32;102208.41;;;3.74;60.56
43770;BME280;6597;52.218;9.882;2023-11-22T11:34:05;102192.69;;;3.67;59.70
43770;BME280;6597;52.218;9.882;2023-11-22T11:36:33;102184.00;;;3.65;60.70
43770;BME280;6597;52.218;9.882;2023-11-22T11:39:02;102199.63;;;3.68;61.48
43770;BME280;6597;52.218;9.882;2023-11-22T11:41:31;102186.78;;;3.77;62.58
43770;BME280;6597;52.218;9.882;2023-11-22T11:43:58;102167.63;;;3.69;64.75
43770;BME280;6597;52.218;9.882;2023-11-22T11:46:28;102154.56;;;3.63;62.34
43770;BME280;6597;52.218;9.882;2023-11-22T11:48:55;102164.94;;;3.63;62.67
43770;BME280;6597;52.218;9.882;2023-11-22T11:51:24;102161.66;;;3.74;63.09
43770;BME280;6597;52.218;9.882;2023-11-22T11:53:51;102150.44;;;3.79;63.18
43770;BME280;6597;52.218;9.882;2023-11-22T11:56:18;102147.84;;;3.79;64.27
43770;BME280;6597;52.218;9.882;2023-11-22T11:58:45;102150.41;;;3.75;65.06
43770;BME280;6597;52.218;9.882;2023-11-22T12:01:13;102134.50;;;3.56;61.81
43770;BME280;6597;52.218;9.882;2023-11-22T12:03:42;102124.22;;;3.60;62.76
43770;BME280;6597;52.218;9.882;2023-11-22T12:06:09;102098.34;;;3.68;63.97
43770;BME280;6597;52.218;9.882;2023-11-22T12:08:37;102089.91;;;3.84;64.58
43770;BME280;6597;52.218;9.882;2023-11-22T12:11:03;102088.06;;;3.74;64.13
43770;BME280;6597;52.218;9.882;2023-11-22T12:13:34;102080.09;;;3.60;64.05
43770;BME280;6597;52.218;9.882;2023-11-22T12:16:04;102070.28;;;3.42;64.53
43770;BME280;6597;52.218;9.882;2023-11-22T12:18:39;102086.66;;;3.38;66.62
43770;BME280;6597;52.218;9.882;2023-11-22T12:21:06;102061.53;;;3.36;67.59
43770;BME280;6597;52.218;9.882;2023-11-22T12:23:33;102060.34;;;3.17;66.20
43770;BME280;6597;52.218;9.882;2023-11-22T12:26:01;102055.22;;;3.20;66.56
43770;BME280;6597;52.218;9.882;2023-11-22T12:28:29;102039.03;;;3.35;67.50
43770;BME280;6597;52.218;9.882;2023-11-22T12:31:06;102035.69;;;3.43;68.82
43770;BME280;6597;52.218;9.882;2023-11-22T12:33:34;102032.34;;;3.54;66.46
43770;BME280;6597;52.218;9.882;2023-11-22T12:36:00;102031.72;;;3.68;66.11
43770;BME280;6597;52.218;9.882;2023-11-22T12:38:27;102016.16;;;3.70;67.93
43770;BME280;6597;52.218;9.882;2023-11-22T12:40:56;102010.91;;;3.67;66.43
43770;BME280;6597;52.218;9.882;2023-11-22T12:43:24;101999.59;;;3.60;64.81
43770;BME280;6597;52.218;9.882;2023-11-22T12:45:58;102002.94;;;3.53;66.14
43770;BME280;6597;52.218;9.882;2023-11-22T12:48:26;102013.28;;;3.50;65.66
43770;BME280;6597;52.218;9.882;2023-11-22T12:50:56;102031.41;;;3.47;65.72
43770;BME280;6597;52.218;9.882;2023-11-22T12:53:23;102055.63;;;3.46;66.84
43770;BME280;6597;52.218;9.882;2023-11-22T12:55:52;102080.00;;;3.57;67.22
43770;BME280;6597;52.218;9.882;2023-11-22T12:58:21;102085.28;;;3.60;65.45
43770;BME280;6597;52.218;9.882;2023-11-22T13:00:53;102067.25;;;3.72;64.52
43770;BME280;6597;52.218;9.882;2023-11-22T13:03:23;102047.44;;;3.79;63.65